sensor_id;sensor_type;location;lat;lon;timestamp;pressure;altitude;pressure_sealevel;temperature;humidity
47530;BME280;33272;51.922;7.730;2023-03-15T00:00:24;143243.19;;;2.97;100.00
47530;BME280;33272;51.922;7.730;2023-03-15T00:02:51;143240.69;;;2.96;100.00
47530;BME280;33272;51.922;7.730;2023-03-15T00:05:18;143258.31;;;3.04;100.00
47530;BME280;33272;51.922;7.730;2023-03-15T00:07:46;143268.38;;;3.08;100.00
47530;BME280;33272;51.922;7.730;2023-03-15T00:10:15;143283.47;;;3.14;100.00
47530;BME280;33272;51.922;7.730;2023-03-15T00:12:42;143291.03;;;3.17;100.00
47530;BME280;33272;51.922;7.730;2023-03-15T00:15:13;143296.09;;;3.19;100.00
47530;BME280;33272;51.922;7.730;2023-03-15T00:17:40;143312.44;;;3.25;100.00
47530;BME280;33272;51.922;7.730;2023-03-15T00:20:09;143297.34;;;3.19;100.00
47530;BME280;33272;51.922;7.730;2023-03-15T00:22:37;143335.13;;;3.35;100.00
47530;BME280;33272;51.922;7.730;2023-03-15T00:25:05;143364.06;;;3.46;100.00
47530;BME280;33272;51.922;7.730;2023-03-15T00:27:33;143346.44;;;3.39;100.00
47530;BME280;33272;51.922;7.730;2023-03-15T00:30:00;143385.50;;;3.55;100.00
47530;BME280;33272;51.922;7.730;2023-03-15T00:32:27;143365.38;;;3.47;100.00
47530;BME280;33272;51.922;7.730;2023-03-15T00:34:54;143382.97;;;3.54;100.00
47530;BME280;33272;51.922;7.730;2023-03-15T00:37:21;143400.59;;;3.61;100.00
47530;BME280;33272;51.922;7.730;2023-03-15T00:39:50;143403.09;;;3.62;100.00
47530;BME280;33272;51.922;7.730;2023-03-15T00:42:20;143366.63;;;3.47;100.00
47530;BME280;33272;51.922;7.730;2023-03-15T00:44:53;143401.84;;;3.62;100.00
47530;BME280;33272;51.922;7.730;2023-03-15T00:47:21;143411.97;;;3.66;100.00
47530;BME280;33272;51.922;7.730;2023-03-15T00:49:48;143406.91;;;3.64;100.00
47530;BME280;33272;51.922;7.730;2023-03-15T00:52:16;143372.91;;;3.50;100.00
47530;BME280;33272;51.922;7.730;2023-03-15T00:54:50;143331.31;;;3.33;100.00
47530;BME280;33272;51.922;7.730;2023-03-15T00:57:17;143330.06;;;3.33;100.00
47530;BME280;33272;51.922;7.730;2023-03-15T00:59:45;143294.78;;;3.18;100.00
47530;BME280;33272;51.922;7.730;2023-03-15T01:02:13;143293.53;;;3.18;100.00
47530;BME280;33272;51.922;7.730;2023-03-15T01:04:40;143267.13;;;3.07;100.00
47530;BME280;33272;51.922;7.730;2023-03-15T01:07:07;143209.19;;;2.84;100.00
47530;BME280;33272;51.922;7.730;2023-03-15T01:09:34;143190.31;;;2.76;100.00
47530;BME280;33272;51.922;7.730;2023-03-15T01:12:02;143153.78;;;2.61;100.00
47530;BME280;33272;51.922;7.730;2023-03-15T01:14:29;143122.34;;;2.48;100.00
47530;BME280;33272;51.922;7.730;2023-03-15T01:16:56;143089.63;;;2.35;100.00
47530;BME280;33272;51.922;7.730;2023-03-15T01:19:24;143030.47;;;2.11;100.00
47530;BME280;33272;51.922;7.730;2023-03-15T01:21:51;143010.38;;;2.03;100.00
47530;BME280;33272;51.922;7.730;2023-03-15T01:24:18;142985.22;;;1.93;100.00
47530;BME280;33272;51.922;7.730;2023-03-15T01:26:45;142958.78;;;1.82;100.00
47530;BME280;33272;51.922;7.730;2023-03-15T01:29:12;142958.78;;;1.82;100.00
47530;BME280;33272;51.922;7.730;2023-03-15T01:31:39;142943.69;;;1.76;100.00
47530;BME280;33272;51.922;7.730;2023-03-15T01:34:06;142957.53;;;1.81;100.00
47530;BME280;33272;51.922;7.730;2023-03-15T01:36:34;142958.78;;;1.82;100.00
47530;BME280;33272;51.922;7.730;2023-03-15T01:39:02;142955.03;;;1.80;100.00
47530;BME280;33272;51.922;7.730;2023-03-15T01:41:29;142926.09;;;1.69;100.00
47530;BME280;33272;51.922;7.730;2023-03-15T01:43:56;142921.06;;;1.67;100.00
47530;BME280;33272;51.922;7.730;2023-03-15T01:46:28;142928.59;;;1.70;100.00
47530;BME280;33272;51.922;7.730;2023-03-15T01:49:04;142929.84;;;1.70;100.00
47530;BME280;33272;51.922;7.730;2023-03-15T01:51:38;142926.09;;;1.69;100.00
47530;BME280;33272;51.922;7.730;2023-03-15T01:54:12;142919.81;;;1.66;100.00
47530;BME280;33272;51.922;7.730;2023-03-15T01:56:45;142909.75;;;1.62;100.00
47530;BME280;33272;51.922;7.730;2023-03-15T01:59:17;142904.72;;;1.60;100.00
47530;BME280;33272;51.922;7.730;2023-03-15T02:01:48;142912.25;;;1.63;100.00
47530;BME280;33272;51.922;7.730;2023-03-15T02:04:17;142905.97;;;1.60;100.00
47530;BME280;33272;51.922;7.730;2023-03-15T02:06:52;142902.22;;;1.59;100.00
47530;BME280;33272;51.922;7.730;2023-03-15T02:09:31;142890.88;;;1.54;100.00
47530;BME280;33272;51.922;7.730;2023-03-15T02:12:01;142890.88;;;1.54;100.00
47530;BME280;33272;51.922;7.730;2023-03-15T02:14:31;142874.53;;;1.48;100.00
47530;BME280;33272;51.922;7.730;2023-03-15T02:16:59;142895.91;;;1.56;100.00
47530;BME280;33272;51.922;7.730;2023-03-15T02:19:41;142883.31;;;1.51;100.00
47530;BME280;33272;51.922;7.730;2023-03-15T02:22:25;142911.00;;;1.62;100.00
47530;BME280;33272;51.922;7.730;2023-03-15T02:24:59;142936.16;;;1.73;100.00
47530;BME280;33272;51.922;7.730;2023-03-15T02:27:32;142924.84;;;1.68;100.00
47530;BME280;33272;51.922;7.730;2023-03-15T02:30:03;142917.31;;;1.65;100.00
47530;BME280;33272;51.922;7.730;2023-03-15T02:32:30;142898.41;;;1.57;100.00
47530;BME280;33272;51.922;7.730;2023-03-15T02:34:57;142942.44;;;1.75;100.00
47530;BME280;33272;51.922;7.730;2023-03-15T02:37:25;142956.28;;;1.81;100.00
47530;BME280;33272;51.922;7.730;2023-03-15T02:39:52;142978.94;;;1.90;100.00
47530;BME280;33272;51.922;7.730;2023-03-15T02:42:19;142968.88;;;1.86;100.00
47530;BME280;33272;51.922;7.730;2023-03-15T02:44:50;142976.38;;;1.89;100.00
47530;BME280;33272;51.922;7.730;2023-03-15T02:47:23;142975.13;;;1.89;100.00
47530;BME280;33272;51.922;7.730;2023-03-15T02:49:52;142988.97;;;1.94;100.00
47530;BME280;33272;51.922;7.730;2023-03-15T02:52:20;143007.88;;;2.02;100.00
47530;BME280;33272;51.922;7.730;2023-03-15T02:54:48;143015.44;;;2.05;100.00
47530;BME280;33272;51.922;7.730;2023-03-15T02:57:17;143014.13;;;2.04;100.00
47530;BME280;33272;51.922;7.730;2023-03-15T02:59:45;142995.28;;;1.97;100.00
47530;BME280;33272;51.922;7.730;2023-03-15T03:02:16;143011.63;;;2.03;100.00
47530;BME280;33272;51.922;7.730;2023-03-15T03:04:44;143006.59;;;2.01;100.00
47530;BME280;33272;51.922;7.730;2023-03-15T03:07:11;143025.47;;;2.09;100.00
47530;BME280;33272;51.922;7.730;2023-03-15T03:09:38;143043.06;;;2.16;100.00
47530;BME280;33272;51.922;7.730;2023-03-15T03:12:06;143058.19;;;2.22;100.00
47530;BME280;33272;51.922;7.730;2023-03-15T03:14:33;143064.47;;;2.25;100.00
47530;BME280;33272;51.922;7.730;2023-03-15T03:17:00;143087.13;;;2.34;100.00
47530;BME280;33272;51.922;7.730;2023-03-15T03:19:28;143068.22;;;2.26;100.00
47530;BME280;33272;51.922;7.730;2023-03-15T03:21:55;143100.97;;;2.40;100.00
47530;BME280;33272;51.922;7.730;2023-03-15T03:24:22;143082.06;;;2.32;100.00
47530;BME280;33272;51.922;7.730;2023-03-15T03:26:50;143085.88;;;2.34;100.00
47530;BME280;33272;51.922;7.730;2023-03-15T03:29:22;143098.44;;;2.39;100.00
47530;BME280;33272;51.922;7.730;2023-03-15T03:31:49;143119.84;;;2.47;100.00
47530;BME280;33272;51.922;7.730;2023-03-15T03:34:16;143114.78;;;2.45;100.00
47530;BME280;33272;51.922;7.730;2023-03-15T03:36:45;143136.19;;;2.54;100.00
47530;BME280;33272;51.922;7.730;2023-03-15T03:39:13;143148.78;;;2.59;100.00
47530;BME280;33272;51.922;7.730;2023-03-15T03:41:40;143122.34;;;2.48;100.00
47530;BME280;33272;51.922;7.730;2023-03-15T03:44:07;143103.47;;;2.41;100.00
47530;BME280;33272;51.922;7.730;2023-03-15T03:46:34;143117.34;;;2.46;100.00
47530;BME280;33272;51.922;7.730;2023-03-15T03:49:02;143140.00;;;2.55;100.00
47530;BME280;33272;51.922;7.730;2023-03-15T03:51:29;143150.03;;;2.60;100.00
47530;BME280;33272;51.922;7.730;2023-03-15T03:54:00;143148.78;;;2.59;100.00
47530;BME280;33272;51.922;7.730;2023-03-15T03:56:27;143146.25;;;2.58;100.00
47530;BME280;33272;51.922;7.730;2023-03-15T03:58:54;143140.00;;;2.55;100.00
47530;BME280;33272;51.922;7.730;2023-03-15T04:01:21;143133.69;;;2.53;100.00
47530;BME280;33272;51.922;7.730;2023-03-15T04:03:48;143145.00;;;2.58;100.00
47530;BME280;33272;51.922;7.730;2023-03-15T04:06:16;143148.78;;;2.59;100.00
47530;BME280;33272;51.922;7.730;2023-03-15T04:08:43;143156.34;;;2.62;100.00
47530;BME280;33272;51.922;7.730;2023-03-15T04:11:11;143166.41;;;2.66;100.00
47530;BME280;33272;51.922;7.730;2023-03-15T04:13:42;143173.97;;;2.69;100.00
47530;BME280;33272;51.922;7.730;2023-03-15T04:16:10;143179.00;;;2.71;100.00
47530;BME280;33272;51.922;7.730;2023-03-15T04:18:37;143181.50;;;2.72;100.00
47530;BME280;33272;51.922;7.730;2023-03-15T04:21:05;143179.00;;;2.71;100.00
47530;BME280;33272;51.922;7.730;2023-03-15T04:23:36;143186.56;;;2.74;100.00
47530;BME280;33272;51.922;7.730;2023-03-15T04:26:04;143177.72;;;2.71;100.00
47530;BME280;33272;51.922;7.730;2023-03-15T04:28:32;143176.47;;;2.70;100.00
47530;BME280;33272;51.922;7.730;2023-03-15T04:31:02;143184.00;;;2.73;100.00
47530;BME280;33272;51.922;7.730;2023-03-15T04:33:29;143161.34;;;2.64;100.00
47530;BME280;33272;51.922;7.730;2023-03-15T04:35:57;143182.75;;;2.73;100.00
47530;BME280;33272;51.922;7.730;2023-03-15T04:38:24;143185.25;;;2.74;100.00
47530;BME280;33272;51.922;7.730;2023-03-15T04:40:51;143173.97;;;2.69;100.00
47530;BME280;33272;51.922;7.730;2023-03-15T04:43:20;143162.59;;;2.65;100.00
47530;BME280;33272;51.922;7.730;2023-03-15T04:45:48;143142.50;;;2.57;100.00
47530;BME280;33272;51.922;7.730;2023-03-15T04:48:16;143128.63;;;2.51;100.00
47530;BME280;33272;51.922;7.730;2023-03-15T04:50:43;143113.53;;;2.45;100.00
47530;BME280;33272;51.922;7.730;2023-03-15T04:53:10;143090.88;;;2.36;100.00
47530;BME280;33272;51.922;7.730;2023-03-15T04:55:37;143072.03;;;2.28;100.00
47530;BME280;33272;51.922;7.730;2023-03-15T04:58:04;143078.31;;;2.30;100.00
47530;BME280;33272;51.922;7.730;2023-03-15T05:00:31;143075.78;;;2.29;100.00
47530;BME280;33272;51.922;7.730;2023-03-15T05:03:00;143079.56;;;2.31;100.00
47530;BME280;33272;51.922;7.730;2023-03-15T05:05:26;143092.13;;;2.36;100.00
47530;BME280;33272;51.922;7.730;2023-03-15T05:07:54;143095.94;;;2.38;100.00
47530;BME280;33272;51.922;7.730;2023-03-15T05:10:21;143103.47;;;2.41;100.00
47530;BME280;33272;51.922;7.730;2023-03-15T05:12:48;143104.72;;;2.41;100.00
47530;BME280;33272;51.922;7.730;2023-03-15T05:15:15;143129.88;;;2.51;100.00
47530;BME280;33272;51.922;7.730;2023-03-15T05:17:42;143136.19;;;2.54;100.00
47530;BME280;33272;51.922;7.730;2023-03-15T05:20:13;143145.00;;;2.58;100.00
47530;BME280;33272;51.922;7.730;2023-03-15T05:22:41;143148.78;;;2.59;100.00
47530;BME280;33272;51.922;7.730;2023-03-15T05:25:09;143147.53;;;2.59;100.00
47530;BME280;33272;51.922;7.730;2023-03-15T05:27:37;143134.94;;;2.53;100.00
47530;BME280;33272;51.922;7.730;2023-03-15T05:30:05;143118.59;;;2.47;100.00
47530;BME280;33272;51.922;7.730;2023-03-15T05:32:33;143123.59;;;2.49;100.00
47530;BME280;33272;51.922;7.730;2023-03-15T05:35:05;143129.88;;;2.51;100.00
47530;BME280;33272;51.922;7.730;2023-03-15T05:37:33;143134.94;;;2.53;100.00
47530;BME280;33272;51.922;7.730;2023-03-15T05:40:00;143124.88;;;2.49;100.00
47530;BME280;33272;51.922;7.730;2023-03-15T05:42:29;143127.38;;;2.50;100.00
47530;BME280;33272;51.922;7.730;2023-03-15T05:44:56;143104.72;;;2.41;100.00
47530;BME280;33272;51.922;7.730;2023-03-15T05:47:23;143089.63;;;2.35;100.00
47530;BME280;33272;51.922;7.730;2023-03-15T05:49:50;143058.19;;;2.22;100.00
47530;BME280;33272;51.922;7.730;2023-03-15T05:52:18;143073.28;;;2.28;100.00
47530;BME280;33272;51.922;7.730;2023-03-15T05:54:46;143079.56;;;2.31;100.00
47530;BME280;33272;51.922;7.730;2023-03-15T05:57:13;143060.69;;;2.23;100.00
47530;BME280;33272;51.922;7.730;2023-03-15T05:59:40;143083.31;;;2.32;100.00
47530;BME280;33272;51.922;7.730;2023-03-15T06:02:07;143088.38;;;2.35;100.00
47530;BME280;33272;51.922;7.730;2023-03-15T06:04:34;143089.63;;;2.35;100.00
47530;BME280;33272;51.922;7.730;2023-03-15T06:07:02;143105.97;;;2.42;100.00
47530;BME280;33272;51.922;7.730;2023-03-15T06:09:29;143109.78;;;2.43;100.00
47530;BME280;33272;51.922;7.730;2023-03-15T06:11:58;143119.84;;;2.47;100.00
47530;BME280;33272;51.922;7.730;2023-03-15T06:14:25;143117.34;;;2.46;100.00
47530;BME280;33272;51.922;7.730;2023-03-15T06:16:52;143117.34;;;2.46;100.00
47530;BME280;33272;51.922;7.730;2023-03-15T06:19:20;143116.03;;;2.46;100.00
47530;BME280;33272;51.922;7.730;2023-03-15T06:21:47;143129.88;;;2.51;100.00
47530;BME280;33272;51.922;7.730;2023-03-15T06:24:15;143145.00;;;2.58;100.00
47530;BME280;33272;51.922;7.730;2023-03-15T06:26:42;143146.25;;;2.58;100.00
47530;BME280;33272;51.922;7.730;2023-03-15T06:29:10;143150.03;;;2.60;100.00
47530;BME280;33272;51.922;7.730;2023-03-15T06:31:37;143147.53;;;2.59;100.00
47530;BME280;33272;51.922;7.730;2023-03-15T06:34:04;143155.09;;;2.62;100.00
47530;BME280;33272;51.922;7.730;2023-03-15T06:36:31;143145.00;;;2.58;100.00
47530;BME280;33272;51.922;7.730;2023-03-15T06:38:58;143147.53;;;2.59;100.00
47530;BME280;33272;51.922;7.730;2023-03-15T06:41:27;143126.13;;;2.50;100.00
47530;BME280;33272;51.922;7.730;2023-03-15T06:43:54;143140.00;;;2.55;100.00
47530;BME280;33272;51.922;7.730;2023-03-15T06:46:22;143140.00;;;2.55;100.00
47530;BME280;33272;51.922;7.730;2023-03-15T06:48:49;143131.13;;;2.52;100.00
47530;BME280;33272;51.922;7.730;2023-03-15T06:51:16;143124.88;;;2.49;100.00
47530;BME280;33272;51.922;7.730;2023-03-15T06:53:46;143140.00;;;2.55;100.00
47530;BME280;33272;51.922;7.730;2023-03-15T06:56:13;143146.25;;;2.58;100.00
47530;BME280;33272;51.922;7.730;2023-03-15T06:58:40;143155.09;;;2.62;100.00
47530;BME280;33272;51.922;7.730;2023-03-15T07:01:10;143167.66;;;2.67;100.00
47530;BME280;33272;51.922;7.730;2023-03-15T07:03:38;143165.16;;;2.66;100.00
47530;BME280;33272;51.922;7.730;2023-03-15T07:06:06;143152.53;;;2.61;100.00
47530;BME280;33272;51.922;7.730;2023-03-15T07:08:33;143146.25;;;2.58;100.00
47530;BME280;33272;51.922;7.730;2023-03-15T07:11:01;143176.47;;;2.70;100.00
47530;BME280;33272;51.922;7.730;2023-03-15T07:13:28;143168.91;;;2.67;100.00
47530;BME280;33272;51.922;7.730;2023-03-15T07:15:55;143184.00;;;2.73;100.00
47530;BME280;33272;51.922;7.730;2023-03-15T07:18:23;143185.25;;;2.74;100.00
47530;BME280;33272;51.922;7.730;2023-03-15T07:20:56;143185.25;;;2.74;100.00
47530;BME280;33272;51.922;7.730;2023-03-15T07:23:23;143220.53;;;2.88;100.00
47530;BME280;33272;51.922;7.730;2023-03-15T07:25:51;143245.69;;;2.98;100.00
47530;BME280;33272;51.922;7.730;2023-03-15T07:28:19;143269.63;;;3.08;100.00
47530;BME280;33272;51.922;7.730;2023-03-15T07:30:54;143254.50;;;3.02;100.00
47530;BME280;33272;51.922;7.730;2023-03-15T07:33:22;143279.72;;;3.12;100.00
47530;BME280;33272;51.922;7.730;2023-03-15T07:35:49;143296.09;;;3.19;100.00
47530;BME280;33272;51.922;7.730;2023-03-15T07:38:20;143285.97;;;3.15;100.00
47530;BME280;33272;51.922;7.730;2023-03-15T07:40:47;143277.16;;;3.11;100.00
47530;BME280;33272;51.922;7.730;2023-03-15T07:43:14;143270.88;;;3.09;100.00
47530;BME280;33272;51.922;7.730;2023-03-15T07:45:41;143273.41;;;3.10;100.00
47530;BME280;33272;51.922;7.730;2023-03-15T07:48:08;143284.72;;;3.14;100.00
47530;BME280;33272;51.922;7.730;2023-03-15T07:50:36;143297.34;;;3.19;100.00
47530;BME280;33272;51.922;7.730;2023-03-15T07:53:03;143284.72;;;3.14;100.00
47530;BME280;33272;51.922;7.730;2023-03-15T07:55:33;143313.72;;;3.26;100.00
47530;BME280;33272;51.922;7.730;2023-03-15T07:58:01;143303.66;;;3.22;100.00
47530;BME280;33272;51.922;7.730;2023-03-15T08:00:29;143318.75;;;3.28;100.00
47530;BME280;33272;51.922;7.730;2023-03-15T08:02:56;143347.69;;;3.40;100.00
47530;BME280;33272;51.922;7.730;2023-03-15T08:05:23;143377.94;;;3.52;100.00
47530;BME280;33272;51.922;7.730;2023-03-15T08:07:50;143394.28;;;3.59;100.00
47530;BME280;33272;51.922;7.730;2023-03-15T08:10:18;143399.34;;;3.61;100.00
47530;BME280;33272;51.922;7.730;2023-03-15T08:12:46;143406.91;;;3.64;100.00
47530;BME280;33272;51.922;7.730;2023-03-15T08:15:14;143405.66;;;3.63;100.00
47530;BME280;33272;51.922;7.730;2023-03-15T08:17:41;143433.34;;;3.75;100.00
47530;BME280;33272;51.922;7.730;2023-03-15T08:20:10;143444.72;;;3.79;100.00
47530;BME280;33272;51.922;7.730;2023-03-15T08:22:39;143452.28;;;3.82;100.00
47530;BME280;33272;51.922;7.730;2023-03-15T08:25:11;143459.84;;;3.85;100.00
47530;BME280;33272;51.922;7.730;2023-03-15T08:27:38;143481.22;;;3.94;100.00
47530;BME280;33272;51.922;7.730;2023-03-15T08:30:10;143503.91;;;4.03;100.00
47530;BME280;33272;51.922;7.730;2023-03-15T08:32:37;143531.66;;;4.14;100.00
47530;BME280;33272;51.922;7.730;2023-03-15T08:35:06;143532.91;;;4.15;100.00
47530;BME280;33272;51.922;7.730;2023-03-15T08:37:33;143537.97;;;4.17;100.00
47530;BME280;33272;51.922;7.730;2023-03-15T08:40:01;143537.97;;;4.17;100.00
47530;BME280;33272;51.922;7.730;2023-03-15T08:42:34;143561.91;;;4.27;100.00
47530;BME280;33272;51.922;7.730;2023-03-15T08:45:02;143579.53;;;4.34;100.00
47530;BME280;33272;51.922;7.730;2023-03-15T08:47:30;143601.00;;;4.43;100.00
47530;BME280;33272;51.922;7.730;2023-03-15T08:50:00;143595.94;;;4.40;100.00
47530;BME280;33272;51.922;7.730;2023-03-15T08:52:27;143623.69;;;4.52;100.00
47530;BME280;33272;51.922;7.730;2023-03-15T08:54:54;143631.25;;;4.55;100.00
47530;BME280;33272;51.922;7.730;2023-03-15T08:57:21;143648.91;;;4.62;100.00
47530;BME280;33272;51.922;7.730;2023-03-15T08:59:50;143665.28;;;4.69;100.00
47530;BME280;33272;51.922;7.730;2023-03-15T09:02:17;143696.81;;;4.81;100.00
47530;BME280;33272;51.922;7.730;2023-03-15T09:04:45;143694.28;;;4.80;100.00
47530;BME280;33272;51.922;7.730;2023-03-15T09:07:13;143685.47;;;4.77;100.00
47530;BME280;33272;51.922;7.730;2023-03-15T09:09:40;143696.81;;;4.81;100.00
47530;BME280;33272;51.922;7.730;2023-03-15T09:12:14;143703.13;;;4.84;100.00
47530;BME280;33272;51.922;7.730;2023-03-15T09:14:41;143698.06;;;4.82;100.00
47530;BME280;33272;51.922;7.730;2023-03-15T09:17:09;143709.44;;;4.86;100.00
47530;BME280;33272;51.922;7.730;2023-03-15T09:19:36;143737.16;;;4.98;100.00
47530;BME280;33272;51.922;7.730;2023-03-15T09:22:05;143737.16;;;4.98;100.00
47530;BME280;33272;51.922;7.730;2023-03-15T09:24:32;143767.44;;;5.10;100.00
47530;BME280;33272;51.922;7.730;2023-03-15T09:26:59;143782.56;;;5.16;100.00
47530;BME280;33272;51.922;7.730;2023-03-15T09:29:26;143801.53;;;5.24;100.00
47530;BME280;33272;51.922;7.730;2023-03-15T09:31:54;143834.31;;;5.37;100.00
47530;BME280;33272;51.922;7.730;2023-03-15T09:34:21;143858.28;;;5.47;100.00
47530;BME280;33272;51.922;7.730;2023-03-15T09:36:48;143850.72;;;5.44;100.00
47530;BME280;33272;51.922;7.730;2023-03-15T09:39:19;143870.91;;;5.52;100.00
47530;BME280;33272;51.922;7.730;2023-03-15T09:41:49;143912.53;;;5.69;100.00
47530;BME280;33272;51.922;7.730;2023-03-15T09:44:31;143918.88;;;5.71;100.00
47530;BME280;33272;51.922;7.730;2023-03-15T09:47:24;143931.47;;;5.76;100.00
47530;BME280;33272;51.922;7.730;2023-03-15T09:49:56;143939.03;;;5.79;100.00
47530;BME280;33272;51.922;7.730;2023-03-15T09:52:32;143944.09;;;5.81;100.00
47530;BME280;33272;51.922;7.730;2023-03-15T09:55:10;143951.69;;;5.85;100.00
47530;BME280;33272;51.922;7.730;2023-03-15T09:57:44;143973.19;;;5.93;100.00
47530;BME280;33272;51.922;7.730;2023-03-15T10:00:16;143992.13;;;6.01;100.00
47530;BME280;33272;51.922;7.730;2023-03-15T10:02:54;144014.84;;;6.10;100.00
47530;BME280;33272;51.922;7.730;2023-03-15T10:05:34;144004.75;;;6.06;100.00
47530;BME280;33272;51.922;7.730;2023-03-15T10:08:09;144024.94;;;6.14;100.00
47530;BME280;33272;51.922;7.730;2023-03-15T10:10:46;144035.06;;;6.18;100.00
47530;BME280;33272;51.922;7.730;2023-03-15T10:13:30;144057.78;;;6.28;100.00
47530;BME280;33272;51.922;7.730;2023-03-15T10:16:08;144050.22;;;6.24;100.00
47530;BME280;33272;51.922;7.730;2023-03-15T10:19:00;144035.06;;;6.18;100.00
47530;BME280;33272;51.922;7.730;2023-03-15T10:21:37;144085.53;;;6.39;100.00
47530;BME280;33272;51.922;7.730;2023-03-15T10:24:16;144131.03;;;6.57;100.00
47530;BME280;33272;51.922;7.730;2023-03-15T10:26:46;144132.28;;;6.58;100.00
47530;BME280;33272;51.922;7.730;2023-03-15T10:29:18;144148.69;;;6.64;100.00
47530;BME280;33272;51.922;7.730;2023-03-15T10:31:46;144191.66;;;6.82;100.00
47530;BME280;33272;51.922;7.730;2023-03-15T10:34:14;144216.91;;;6.92;100.00
47530;BME280;33272;51.922;7.730;2023-03-15T10:36:47;144213.16;;;6.90;100.00
47530;BME280;33272;51.922;7.730;2023-03-15T10:39:19;144196.69;;;6.84;100.00
47530;BME280;33272;51.922;7.730;2023-03-15T10:41:49;144192.91;;;6.82;100.00
47530;BME280;33272;51.922;7.730;2023-03-15T10:44:19;144204.28;;;6.87;100.00
47530;BME280;33272;51.922;7.730;2023-03-15T10:47:01;144220.69;;;6.93;100.00
47530;BME280;33272;51.922;7.730;2023-03-15T10:49:36;144254.84;;;7.07;100.00
47530;BME280;33272;51.922;7.730;2023-03-15T10:52:04;144304.09;;;7.27;100.00
47530;BME280;33272;51.922;7.730;2023-03-15T10:54:31;144336.97;;;7.40;96.36
47530;BME280;33272;51.922;7.730;2023-03-15T10:57:03;144362.28;;;7.51;93.46
47530;BME280;33272;51.922;7.730;2023-03-15T10:59:34;144374.88;;;7.56;93.44
47530;BME280;33272;51.922;7.730;2023-03-15T11:02:21;144420.41;;;7.74;91.74
47530;BME280;33272;51.922;7.730;2023-03-15T11:04:59;144424.22;;;7.76;95.81
47530;BME280;33272;51.922;7.730;2023-03-15T11:07:27;144401.47;;;7.66;93.86
47530;BME280;33272;51.922;7.730;2023-03-15T11:10:00;144407.75;;;7.69;90.47
47530;BME280;33272;51.922;7.730;2023-03-15T11:12:31;144440.66;;;7.82;94.04
47530;BME280;33272;51.922;7.730;2023-03-15T11:15:02;144472.28;;;7.95;94.83
47530;BME280;33272;51.922;7.730;2023-03-15T11:17:34;144454.53;;;7.88;91.88
47530;BME280;33272;51.922;7.730;2023-03-15T11:20:21;144438.09;;;7.81;89.42
47530;BME280;33272;51.922;7.730;2023-03-15T11:22:55;144469.72;;;7.94;90.80
47530;BME280;33272;51.922;7.730;2023-03-15T11:25:28;144469.72;;;7.94;91.08
47530;BME280;33272;51.922;7.730;2023-03-15T11:27:59;144481.13;;;7.99;89.67
47530;BME280;33272;51.922;7.730;2023-03-15T11:30:28;144481.13;;;7.99;88.26
47530;BME280;33272;51.922;7.730;2023-03-15T11:33:02;144505.13;;;8.08;81.76
47530;BME280;33272;51.922;7.730;2023-03-15T11:35:35;144482.38;;;7.99;84.75
47530;BME280;33272;51.922;7.730;2023-03-15T11:38:12;144481.13;;;7.99;88.71
47530;BME280;33272;51.922;7.730;2023-03-15T11:40:43;144495.03;;;8.04;87.93
47530;BME280;33272;51.922;7.730;2023-03-15T11:43:18;144487.44;;;8.01;82.57
47530;BME280;33272;51.922;7.730;2023-03-15T11:45:52;144505.13;;;8.08;88.22
47530;BME280;33272;51.922;7.730;2023-03-15T11:48:25;144536.75;;;8.21;86.79
47530;BME280;33272;51.922;7.730;2023-03-15T11:50:54;144544.34;;;8.24;83.41
47530;BME280;33272;51.922;7.730;2023-03-15T11:53:29;144522.84;;;8.16;76.11
47530;BME280;33272;51.922;7.730;2023-03-15T11:56:20;144541.84;;;8.23;77.36
47530;BME280;33272;51.922;7.730;2023-03-15T11:59:05;144554.44;;;8.28;78.64
47530;BME280;33272;51.922;7.730;2023-03-15T12:01:36;144620.31;;;8.55;75.93
47530;BME280;33272;51.922;7.730;2023-03-15T12:04:48;144622.81;;;8.56;65.66
47530;BME280;33272;51.922;7.730;2023-03-15T12:07:36;144679.75;;;8.79;70.40
47530;BME280;33272;51.922;7.730;2023-03-15T12:10:31;144654.47;;;8.69;64.33
47530;BME280;33272;51.922;7.730;2023-03-15T12:13:13;144646.88;;;8.66;67.70
47530;BME280;33272;51.922;7.730;2023-03-15T12:15:46;144629.16;;;8.58;71.94
47530;BME280;33272;51.922;7.730;2023-03-15T12:18:41;144636.75;;;8.62;65.28
47530;BME280;33272;51.922;7.730;2023-03-15T12:21:16;144677.25;;;8.78;70.46
47530;BME280;33272;51.922;7.730;2023-03-15T12:23:54;144696.19;;;8.86;67.26
47530;BME280;33272;51.922;7.730;2023-03-15T12:26:25;144758.22;;;9.11;71.95
47530;BME280;33272;51.922;7.730;2023-03-15T12:29:06;144791.19;;;9.24;69.52
47530;BME280;33272;51.922;7.730;2023-03-15T12:31:54;144824.09;;;9.37;69.90
47530;BME280;33272;51.922;7.730;2023-03-15T12:34:29;144893.72;;;9.65;70.97
47530;BME280;33272;51.922;7.730;2023-03-15T12:37:05;144930.44;;;9.80;71.41
47530;BME280;33272;51.922;7.730;2023-03-15T12:39:44;144922.81;;;9.77;67.67
47530;BME280;33272;51.922;7.730;2023-03-15T12:45:38;144892.47;;;9.65;59.75
47530;BME280;33272;51.922;7.730;2023-03-15T12:48:33;144897.50;;;9.67;60.51
47530;BME280;33272;51.922;7.730;2023-03-15T12:51:09;144933.00;;;9.81;68.46
47530;BME280;33272;51.922;7.730;2023-03-15T12:53:47;144948.19;;;9.87;66.42
47530;BME280;33272;51.922;7.730;2023-03-15T12:56:43;144957.06;;;9.91;60.30
47530;BME280;33272;51.922;7.730;2023-03-15T12:59:44;144881.06;;;9.60;54.00
47530;BME280;33272;51.922;7.730;2023-03-15T13:02:32;144925.41;;;9.78;66.16
47530;BME280;33272;51.922;7.730;2023-03-15T13:05:23;144982.38;;;10.01;67.35
47530;BME280;33272;51.922;7.730;2023-03-15T13:08:04;145044.50;;;10.26;66.78
47530;BME280;33272;51.922;7.730;2023-03-15T13:10:52;145033.09;;;10.21;58.44
47530;BME280;33272;51.922;7.730;2023-03-15T13:13:48;144977.28;;;9.99;52.47